Pagrindinis puslapis
METAR-TAF:

METAR-TAF

Oro uostai :

Uberlandija, Minas Žeraisas, Brazilija

platuma: 18-53S, ilguma: 048-14W, Aukštis: 943 m

Dabartinis oras

Ataskaita buvo paskelbta 1 valandą ir 14 minutes, ne 20:00 UTC
Vėjas 5 kt iš Rytų/Šiaurės Rytų
Temperatūra 21°C
Drėgmė 46%
Slėgis 1020 hPa
Matomumas 10 km arba daugiau
nėra debesų žemiau 1500 m ir nėra kamuolinių lietaus debesų

METAR: SBUL 302000Z 06005KT CAVOK 21/09 Q1020

Laikas: 18:14 (21:14 UTC)

Prognozė

Ataskaita buvo paskelbta 4 valandos ir 53 minutes, ne 16:21 UTC
Prognozė galioja nuo 30 metu 18 UTC su 31 metu 06 UTC
Vėjas 8 kt iš Šiaurės Rytų
Matomumas 10 km arba daugiau
nėra debesų žemiau 1500 m ir nėra kamuolinių lietaus debesų
Tapsmas
nuo 30 metu 20 UTC su 30 metu 22 UTC
Vėjas 5 kt iš Šiaurės/Šiaurės Rytų

TAF: SBUL 301621Z 3018/3106 04008KT CAVOK TX25/3019Z TN14/3105Z BECMG 3020/3022 02005KT RMK PHM

Orai ataskaitas ir orų prognozės (METAR, TAF).

turimą stotys yra geltonos ir raudonos taškus žemėlapyje.

Perkelti pele per norėdami pamatyti stoties vardą.

Tada spustelėkite, norėdami matyti oro stebėjimo ir prognozės.

Norėdami pakeisti žemėlapį: spustelėkite ant žalios mygtukų su juodo kryžiaus žemyn,; žalią mygtuką su brūkšneliu, jei norite nutolinti; arba žalių rodyklių gretimoms žemėlapius.


METAR-TAF: